This is the latest recevied weather packets stored in our database for station/object K9ABJ. If no packets are shown the sender has not sent any weather packets the latest 1 day(s).
| Time | Temp. | Humidity | Pressure | Rain* | Wind** | Luminosity | Snow |
|---|---|---|---|---|---|---|---|
| 1778071052 | 8.89° C | 71% | 1011.7 hPa | 0 mm | - | 103 W/m² | - |
| 1778070144 | 8.89° C | 75% | 1011.8 hPa | 0 mm | - | 143 W/m² | - |
| 1778069236 | 10° C | 83% | 1011.5 hPa | 0 mm | - | 142 W/m² | - |
| 1778067423 | 7.78° C | 92% | 1011 hPa | 0 mm | - | 65 W/m² | - |
| 1778066211 | 6.11° C | 92% | 1010.7 hPa | 0 mm | - | 18 W/m² | - |
| 1778064696 | 6.67° C | 93% | 1010 hPa | 0 mm | - | 4 W/m² | - |
| 1778064092 | 7.22° C | 93% | 1010 hPa | 0 mm | - | 1 W/m² | - |
| 1778063789 | 7.22° C | 93% | 1010.1 hPa | 0 mm | - | 0 W/m² | - |
| 1778063486 | 7.22° C | 93% | 1009.9 hPa | 0 mm | - | 0 W/m² | - |
| 1778063184 | 7.22° C | 93% | 1009.7 hPa | 0 mm | - | 0 W/m² | - |
| 1778062881 | 7.22° C | 93% | 1009.7 hPa | 0 mm | - | 0 W/m² | - |
| 1778060159 | 7.22° C | 93% | 1009.7 hPa | 0 mm | - | 0 W/m² | - |
| 1778059856 | 7.22° C | 93% | 1009.7 hPa | 0 mm | - | 0 W/m² | - |
| 1778059554 | 7.22° C | 93% | 1009.4 hPa | 0 mm | - | 0 W/m² | - |
| 1778059250 | 7.22° C | 93% | 1009.7 hPa | 0 mm | - | 0 W/m² | - |
| 1778058646 | 7.22° C | 93% | 1009.5 hPa | 0 mm | - | 0 W/m² | - |
| 1778057433 | 7.22° C | 93% | 1009.2 hPa | 0 mm | - | 0 W/m² | - |
| 1778057130 | 7.22° C | 93% | 1009.2 hPa | 0 mm | - | 0 W/m² | - |
| 1778056221 | 6.67° C | 93% | 1008.9 hPa | 0 mm | - | 0 W/m² | - |
| 1778055613 | 7.22° C | 93% | 1009.1 hPa | 0 mm | - | 0 W/m² | - |
| 1778055009 | 6.67° C | 93% | 1009.4 hPa | 0 mm | - | 0 W/m² | - |
| 1778054706 | 6.67° C | 92% | 1009.4 hPa | 0 mm | - | 0 W/m² | - |
| 1778054101 | 6.67° C | 92% | 1008.8 hPa | 0 mm | - | 0 W/m² | - |
| 1778053797 | 6.67° C | 93% | 1008.8 hPa | 0 mm | - | 0 W/m² | - |
| 1778052889 | 6.67° C | 92% | 1008.4 hPa | 0 mm | - | 0 W/m² | - |
* Rain latest hour (hover to see other rain measurements)
** Current wind speed in m/s (hover to see current wind gust speed)